Hauptseite
METAR-TAF:

METAR-TAF

Flughäfen :

Athen, Griechenland

Eleftherios-Venizelos-Flughafen Athen

Breite: 37-56N, Länge: 023-56E, Höhe: 94 m

Beobachtung

Neuester Wetterbericht von vor 36 Minuten, um 04:50 UTC
Wind 1 kt aus West
Temperatur 9°C
Luftfeuchtigkeit 71%
Luftdruck 1015 hPa
Sichtweite 10 km oder mehr
keine Wolken unter 1500 m und keine Kumulonimbus oder Gewitterwolken

METAR: LGAV 260450Z 27001KT CAVOK 09/04 Q1015 NOSIG

Zeit: 08:26 (05:26 UTC)

Prognose

Neuester Wetterbericht von vor 6 Stunden und 26 Minuten, um 23:00 UTC
Gültige Prognose vom 26 um 00 UTC bis 26 um 24 UTC
Wind 5 kt aus unterschiedlichen Richtungen
Sichtweite 10 km oder mehr
Leicht bewölkt in der Höhe von 2500 ft
Übergehend zu
vom 26 um 10 UTC bis 26 um 12 UTC
Wind 10 kt aus Nordost

TAF: LGAV 252300Z 2600/2624 VRB05KT 9999 FEW025 BECMG 2610/2612 04010KT

Wetterbeobachtungen und Prognosen von mehr als 4000 Flughäfen (METAR und TAF Bericht).

Die verfügbaren Stationen werden durch gelbe und rote Markierungen auf der Karte dargestellt.

Führen Sie die Maus auf sie, um den Namen der Station zu sehen.

Darauf klicken, um die Beobachtung von Wetterbeobachtungen und Prognosen zu sehen.

Um die Karte zu ändern : klicken Sie auf den grünen Tasten mit einem schwarzen Kreuz Zum Vergrößern, auf den grünen Button mit einem Gedankenstrich zu verkleinern, oder auf die grünen Pfeile für benachbarte Karten.


METAR-TAF: